Time;durP1;ratioP1;P1;durP2;ratioP2;P2;SDS_P1;SDS_P2;PMS_P1;PMS_P2;Temp;Humidity;BMP_temperature;BMP_pressure;BME280_temperature;BME280_humidity;BME280_pressure;Samples;Min_cycle;Max_cycle;Signal;HPM_P1;HPM_P2
2023/08/26 00:00:48;;;;;;;10.32;6.18;;;;;;;;;;7367000;19;20002;-73
2023/08/26 00:03:14;;;;;;;13.13;6.45;;;;;;;;;;7367411;19;20639;-73
2023/08/26 00:05:41;;;;;;;8.43;5.95;;;;;;;;;;7363511;19;20018;-72
2023/08/26 00:08:06;;;;;;;11.20;6.00;;;;;;;;;;7368152;19;20436;-73
2023/08/26 00:10:31;;;;;;;13.95;6.57;;;;;;;;;;7389103;19;20078;-72
2023/08/26 00:12:56;;;;;;;8.40;5.60;;;;;;;;;;7366970;19;20002;-72
2023/08/26 00:15:22;;;;;;;21.10;14.48;;;;;;;;;;7365298;19;20021;-73
2023/08/26 00:17:48;;;;;;;13.02;8.68;;;;;;;;;;7368048;19;20013;-73
2023/08/26 00:20:14;;;;;;;9.85;5.75;;;;;;;;;;7366952;19;20422;-73
2023/08/26 00:22:40;;;;;;;15.63;5.72;;;;;;;;;;7388799;19;21236;-73
2023/08/26 00:25:06;;;;;;;7.93;5.18;;;;;;;;;;7366213;19;20010;-73
2023/08/26 00:27:31;;;;;;;7.75;5.20;;;;;;;;;;7375919;19;20039;-72
2023/08/26 00:29:56;;;;;;;9.52;5.15;;;;;;;;;;7374919;19;20014;-73
2023/08/26 00:32:22;;;;;;;9.63;5.20;;;;;;;;;;7371077;19;20029;-72
2023/08/26 00:34:47;;;;;;;9.30;5.25;;;;;;;;;;7365339;19;20393;-72
2023/08/26 00:37:13;;;;;;;16.20;5.50;;;;;;;;;;7389020;19;20095;-72
2023/08/26 00:39:41;;;;;;;7.28;4.72;;;;;;;;;;7366738;19;20010;-72
2023/08/26 00:42:06;;;;;;;8.98;4.57;;;;;;;;;;7366819;19;20552;-73
2023/08/26 00:44:32;;;;;;;6.32;4.70;;;;;;;;;;7372532;19;20019;-72
2023/08/26 00:46:59;;;;;;;9.38;4.60;;;;;;;;;;7370962;19;20001;-72
2023/08/26 00:49:24;;;;;;;9.30;4.38;;;;;;;;;;7396292;19;20022;-72
2023/08/26 00:51:50;;;;;;;8.38;4.57;;;;;;;;;;7373449;19;20002;-72
2023/08/26 00:54:17;;;;;;;7.13;4.65;;;;;;;;;;7371699;19;20241;-72
2023/08/26 00:56:42;;;;;;;8.98;4.45;;;;;;;;;;7375091;19;20429;-73
2023/08/26 00:59:08;;;;;;;6.85;4.60;;;;;;;;;;7374889;19;20401;-71
2023/08/26 01:01:33;;;;;;;11.60;5.50;;;;;;;;;;7394056;19;20357;-72
2023/08/26 01:03:59;;;;;;;7.85;4.55;;;;;;;;;;7372015;19;20011;-73
2023/08/26 01:06:24;;;;;;;9.05;4.43;;;;;;;;;;7369351;19;20026;-73
2023/08/26 01:08:50;;;;;;;8.13;4.75;;;;;;;;;;7373544;19;20014;-73
2023/08/26 01:11:46;;;;;;;7.88;4.68;;;;;;;;;;7373149;19;20034;-72
2023/08/26 01:14:22;;;;;;;8.63;4.50;;;;;;;;;;7373459;19;20018;-72
2023/08/26 01:16:48;;;;;;;10.30;5.10;;;;;;;;;;7372881;19;19998;-72
2023/08/26 01:19:33;;;;;;;8.50;4.43;;;;;;;;;;7394081;19;20351;-73
2023/08/26 01:22:05;;;;;;;8.25;5.22;;;;;;;;;;7370452;19;20439;-72
2023/08/26 01:24:31;;;;;;;10.38;5.10;;;;;;;;;;7369420;19;20387;-72
2023/08/26 01:26:57;;;;;;;9.20;5.72;;;;;;;;;;7371073;19;20002;-73
2023/08/26 01:29:23;;;;;;;10.63;6.15;;;;;;;;;;7372203;19;20101;-72
2023/08/26 01:31:57;;;;;;;9.32;6.13;;;;;;;;;;7371919;19;19999;-72
2023/08/26 01:34:26;;;;;;;7.70;6.22;;;;;;;;;;7392122;19;20038;-72
2023/08/26 01:36:52;;;;;;;8.98;6.47;;;;;;;;;;7371421;19;19998;-72
2023/08/26 01:39:19;;;;;;;11.73;7.63;;;;;;;;;;7370260;19;20016;-72
2023/08/26 01:41:50;;;;;;;11.98;7.60;;;;;;;;;;7372191;19;20048;-71
2023/08/26 01:44:17;;;;;;;9.18;7.38;;;;;;;;;;7370053;19;20804;-73
2023/08/26 01:46:44;;;;;;;10.73;7.28;;;;;;;;;;7391671;19;20006;-72
2023/08/26 01:49:09;;;;;;;13.40;7.75;;;;;;;;;;7371799;19;20016;-72
2023/08/26 01:51:35;;;;;;;9.68;7.68;;;;;;;;;;7370569;19;20090;-72
2023/08/26 01:54:00;;;;;;;11.57;7.18;;;;;;;;;;7368993;19;20126;-70
2023/08/26 01:56:25;;;;;;;10.80;7.25;;;;;;;;;;7370870;19;20002;-72
2023/08/26 01:58:51;;;;;;;12.70;7.32;;;;;;;;;;7372169;19;20290;-73
2023/08/26 02:01:16;;;;;;;15.13;7.82;;;;;;;;;;7391645;19;20118;-72
2023/08/26 02:03:42;;;;;;;11.95;7.60;;;;;;;;;;7370853;19;20472;-72
2023/08/26 02:06:08;;;;;;;10.85;7.93;;;;;;;;;;7369388;19;20037;-72
2023/08/26 02:08:33;;;;;;;14.13;8.95;;;;;;;;;;7371237;19;20605;-72
2023/08/26 02:10:58;;;;;;;12.10;7.38;;;;;;;;;;7371116;19;20006;-73
2023/08/26 02:13:24;;;;;;;10.52;6.90;;;;;;;;;;7393247;19;20023;-72
2023/08/26 02:15:50;;;;;;;15.05;7.15;;;;;;;;;;7369317;19;20406;-72
2023/08/26 02:18:16;;;;;;;11.80;7.50;;;;;;;;;;7369763;19;20007;-72
2023/08/26 02:20:42;;;;;;;13.50;7.15;;;;;;;;;;7371002;19;20010;-72
2023/08/26 02:23:08;;;;;;;11.30;6.80;;;;;;;;;;7371609;19;20010;-72
2023/08/26 02:25:33;;;;;;;11.13;7.20;;;;;;;;;;7389936;19;20010;-71
2023/08/26 02:27:58;;;;;;;11.05;6.70;;;;;;;;;;7370058;19;20010;-71
2023/08/26 02:30:23;;;;;;;9.07;7.20;;;;;;;;;;7370701;19;20085;-72
2023/08/26 02:32:49;;;;;;;10.15;7.10;;;;;;;;;;7370969;19;20003;-71
2023/08/26 02:35:15;;;;;;;12.70;6.43;;;;;;;;;;7367794;19;20010;-72
2023/08/26 02:37:40;;;;;;;10.68;6.80;;;;;;;;;;7392301;19;20023;-72
2023/08/26 02:40:06;;;;;;;9.45;6.43;;;;;;;;;;7370042;19;20011;-77
2023/08/26 02:42:32;;;;;;;10.57;7.47;;;;;;;;;;7369226;19;20024;-72
2023/08/26 02:44:58;;;;;;;10.98;6.63;;;;;;;;;;7366627;19;20006;-71
2023/08/26 02:47:23;;;;;;;12.40;7.32;;;;;;;;;;7368673;19;20017;-71
2023/08/26 02:49:49;;;;;;;9.52;6.45;;;;;;;;;;7369901;19;20015;-72
2023/08/26 02:52:14;;;;;;;12.23;6.72;;;;;;;;;;7389916;19;20019;-72
2023/08/26 02:54:39;;;;;;;10.40;6.85;;;;;;;;;;7367120;19;20019;-72
2023/08/26 02:57:05;;;;;;;10.13;6.13;;;;;;;;;;7371037;19;20010;-71
2023/08/26 02:59:30;;;;;;;9.27;5.80;;;;;;;;;;7369371;19;20420;-71
2023/08/26 03:02:03;;;;;;;9.48;6.30;;;;;;;;;;7367954;19;20028;-72
2023/08/26 03:04:32;;;;;;;10.20;6.20;;;;;;;;;;7388949;19;19995;-72
2023/08/26 03:06:58;;;;;;;10.32;5.20;;;;;;;;;;7363597;19;20007;-72
2023/08/26 03:09:24;;;;;;;8.85;5.93;;;;;;;;;;7368437;19;20496;-72
2023/08/26 03:11:49;;;;;;;12.85;6.25;;;;;;;;;;7368886;19;20009;-70
2023/08/26 03:14:14;;;;;;;10.98;5.18;;;;;;;;;;7366246;19;20002;-72
2023/08/26 03:16:40;;;;;;;7.75;4.78;;;;;;;;;;7389634;19;20003;-71
2023/08/26 03:19:06;;;;;;;10.60;5.10;;;;;;;;;;7367921;19;20354;-72
2023/08/26 03:21:31;;;;;;;8.68;4.63;;;;;;;;;;7367596;19;20011;-72
2023/08/26 03:23:57;;;;;;;7.28;4.38;;;;;;;;;;7368091;19;20017;-71
2023/08/26 03:26:23;;;;;;;9.93;4.30;;;;;;;;;;7366201;19;20368;-71
2023/08/26 03:28:48;;;;;;;8.32;4.80;;;;;;;;;;7368592;19;20018;-72
2023/08/26 03:31:14;;;;;;;9.35;4.57;;;;;;;;;;7389490;19;20440;-72
2023/08/26 03:33:40;;;;;;;7.22;4.03;;;;;;;;;;7362018;19;20015;-71
2023/08/26 03:36:06;;;;;;;8.32;4.22;;;;;;;;;;7366927;19;20002;-72
2023/08/26 03:38:32;;;;;;;8.85;4.32;;;;;;;;;;7367238;19;20014;-71
2023/08/26 03:40:57;;;;;;;6.20;3.92;;;;;;;;;;7366869;19;20007;-71
2023/08/26 03:43:23;;;;;;;7.72;4.47;;;;;;;;;;7388962;19;20070;-70
2023/08/26 03:45:48;;;;;;;7.28;4.00;;;;;;;;;;7366279;19;20006;-71
2023/08/26 03:48:14;;;;;;;7.47;4.28;;;;;;;;;;7368289;19;20014;-72
2023/08/26 03:50:52;;;;;;;8.77;4.45;;;;;;;;;;7369201;19;20028;-71
2023/08/26 03:53:18;;;;;;;8.18;4.40;;;;;;;;;;7368511;19;20010;-72
2023/08/26 03:55:44;;;;;;;8.30;4.50;;;;;;;;;;7388450;19;20078;-73
2023/08/26 03:58:09;;;;;;;10.30;4.50;;;;;;;;;;7367221;19;20035;-70
2023/08/26 04:00:35;;;;;;;9.80;4.28;;;;;;;;;;7366840;19;20015;-70
2023/08/26 04:03:00;;;;;;;7.03;3.80;;;;;;;;;;7364652;19;20017;-72
2023/08/26 04:05:26;;;;;;;6.70;3.80;;;;;;;;;;7364056;19;20078;-72
2023/08/26 04:07:51;;;;;;;7.88;4.13;;;;;;;;;;7367220;19;20066;-72
2023/08/26 04:10:16;;;;;;;8.68;4.22;;;;;;;;;;7389786;19;20495;-72
2023/08/26 04:12:42;;;;;;;7.55;3.75;;;;;;;;;;7366106;19;20002;-72
2023/08/26 04:15:08;;;;;;;9.85;3.97;;;;;;;;;;7365001;19;20473;-72
2023/08/26 04:17:33;;;;;;;7.57;3.50;;;;;;;;;;7365377;19;20007;-72
2023/08/26 04:20:02;;;;;;;11.23;3.97;;;;;;;;;;7366185;19;20003;-72
2023/08/26 04:22:27;;;;;;;7.20;4.10;;;;;;;;;;7387588;19;19999;-71
2023/08/26 04:24:52;;;;;;;6.03;3.50;;;;;;;;;;7363584;19;20027;-71
2023/08/26 04:27:18;;;;;;;7.53;3.47;;;;;;;;;;7365761;19;20002;-71
2023/08/26 04:29:43;;;;;;;7.07;3.50;;;;;;;;;;7365775;19;20006;-70
2023/08/26 04:32:08;;;;;;;7.63;3.50;;;;;;;;;;7366229;19;20486;-71
2023/08/26 04:34:34;;;;;;;5.40;3.42;;;;;;;;;;7405008;19;20010;-71
2023/08/26 04:36:59;;;;;;;6.32;3.22;;;;;;;;;;7384390;19;20031;-71
2023/08/26 04:39:25;;;;;;;7.25;3.50;;;;;;;;;;7379568;19;20006;-71
2023/08/26 04:41:50;;;;;;;7.30;3.53;;;;;;;;;;7373304;19;20422;-71
2023/08/26 04:44:19;;;;;;;7.35;3.65;;;;;;;;;;7367031;19;20107;-71
2023/08/26 04:46:44;;;;;;;5.07;3.28;;;;;;;;;;7385625;19;20007;-72
2023/08/26 04:49:09;;;;;;;7.28;3.47;;;;;;;;;;7364039;19;20481;-70
2023/08/26 04:51:37;;;;;;;5.95;3.20;;;;;;;;;;7361255;19;20015;-72
2023/08/26 04:54:03;;;;;;;5.55;3.03;;;;;;;;;;7363636;19;20022;-72
2023/08/26 04:56:28;;;;;;;4.35;3.00;;;;;;;;;;7365498;19;20011;-71
2023/08/26 04:58:54;;;;;;;6.70;3.35;;;;;;;;;;7364233;19;20420;-71
2023/08/26 05:01:20;;;;;;;5.68;2.75;;;;;;;;;;7386719;19;20003;-71
2023/08/26 05:03:45;;;;;;;4.50;2.70;;;;;;;;;;7364501;19;20011;-71
2023/08/26 05:06:10;;;;;;;4.85;2.60;;;;;;;;;;7363833;19;19999;-71
2023/08/26 05:08:36;;;;;;;6.60;2.75;;;;;;;;;;7365806;19;20014;-72
2023/08/26 05:11:01;;;;;;;5.15;2.45;;;;;;;;;;7365639;19;20465;-72
2023/08/26 05:13:26;;;;;;;3.88;2.20;;;;;;;;;;7387808;19;20100;-71
2023/08/26 05:15:52;;;;;;;4.93;2.28;;;;;;;;;;7363658;19;19998;-72
2023/08/26 05:18:18;;;;;;;3.58;2.17;;;;;;;;;;7365223;19;20023;-72
2023/08/26 05:20:45;;;;;;;4.65;2.15;;;;;;;;;;7368849;19;20021;-72
2023/08/26 05:23:12;;;;;;;3.83;2.10;;;;;;;;;;7366378;19;20094;-71
2023/08/26 05:25:37;;;;;;;5.63;1.92;;;;;;;;;;7384757;19;20003;-70
2023/08/26 05:28:04;;;;;;;4.55;2.10;;;;;;;;;;7366691;19;20006;-73
2023/08/26 05:30:30;;;;;;;5.63;2.30;;;;;;;;;;7371824;19;20014;-71
2023/08/26 05:32:55;;;;;;;3.65;2.08;;;;;;;;;;7373844;19;20477;-71
2023/08/26 05:35:21;;;;;;;4.85;2.17;;;;;;;;;;7370141;19;20011;-71
2023/08/26 05:37:46;;;;;;;4.05;1.90;;;;;;;;;;7374787;19;20006;-71
2023/08/26 05:40:12;;;;;;;4.90;1.80;;;;;;;;;;7392408;19;20014;-72
2023/08/26 05:42:38;;;;;;;7.40;2.10;;;;;;;;;;7371418;19;20010;-72
2023/08/26 05:45:05;;;;;;;2.88;1.80;;;;;;;;;;7369776;19;20397;-70
2023/08/26 05:47:30;;;;;;;4.38;1.92;;;;;;;;;;7370792;19;20007;-71
2023/08/26 05:49:58;;;;;;;4.90;2.40;;;;;;;;;;7372236;19;20005;-71
2023/08/26 05:52:24;;;;;;;3.60;2.00;;;;;;;;;;7393931;19;20002;-71
2023/08/26 05:54:49;;;;;;;5.00;2.15;;;;;;;;;;7368356;19;20009;-71
2023/08/26 05:57:15;;;;;;;4.47;2.05;;;;;;;;;;7370827;19;20015;-71
2023/08/26 05:59:40;;;;;;;3.72;1.88;;;;;;;;;;7371669;19;20397;-71
2023/08/26 06:02:06;;;;;;;3.70;1.90;;;;;;;;;;7370228;19;20809;-71
2023/08/26 06:04:31;;;;;;;4.63;1.70;;;;;;;;;;7390382;19;20010;-71
2023/08/26 06:06:59;;;;;;;4.28;1.85;;;;;;;;;;7368342;19;20024;-71
2023/08/26 06:09:25;;;;;;;4.72;2.20;;;;;;;;;;7370429;19;20402;-72
2023/08/26 06:11:50;;;;;;;4.72;1.92;;;;;;;;;;7371555;19;20010;-72
2023/08/26 06:14:16;;;;;;;2.95;1.70;;;;;;;;;;7369889;19;20023;-72
2023/08/26 06:16:41;;;;;;;2.42;1.70;;;;;;;;;;7393476;19;20474;-72
2023/08/26 06:19:06;;;;;;;5.45;1.88;;;;;;;;;;7370880;19;19998;-72
2023/08/26 06:21:32;;;;;;;4.72;2.00;;;;;;;;;;7370583;19;20014;-72
2023/08/26 06:23:57;;;;;;;2.83;1.73;;;;;;;;;;7370038;19;20003;-71
2023/08/26 06:26:23;;;;;;;2.13;1.67;;;;;;;;;;7367409;19;20517;-71
2023/08/26 06:28:48;;;;;;;6.05;1.65;;;;;;;;;;7370295;19;20011;-71
2023/08/26 06:31:13;;;;;;;3.15;1.48;;;;;;;;;;7391961;19;20382;-70
2023/08/26 06:33:39;;;;;;;3.40;1.75;;;;;;;;;;7368967;19;20078;-71
2023/08/26 06:36:05;;;;;;;3.53;1.58;;;;;;;;;;7369333;19;20017;-72
2023/08/26 06:38:30;;;;;;;2.72;1.65;;;;;;;;;;7370104;19;20021;-71
2023/08/26 06:40:56;;;;;;;5.70;1.73;;;;;;;;;;7370600;19;20327;-71
2023/08/26 06:43:22;;;;;;;5.13;1.77;;;;;;;;;;7392546;19;20122;-71
2023/08/26 06:45:48;;;;;;;3.90;1.70;;;;;;;;;;7367870;19;20014;-71
2023/08/26 06:48:14;;;;;;;2.63;1.45;;;;;;;;;;7369414;19;20015;-71
2023/08/26 06:50:40;;;;;;;3.60;1.73;;;;;;;;;;7370378;19;20038;-71
2023/08/26 06:53:06;;;;;;;2.95;1.40;;;;;;;;;;7369251;19;20124;-67
2023/08/26 06:55:31;;;;;;;2.90;1.55;;;;;;;;;;7387456;19;20472;-69
2023/08/26 06:57:56;;;;;;;4.20;1.65;;;;;;;;;;7368927;19;20042;-68
2023/08/26 07:00:22;;;;;;;3.45;1.70;;;;;;;;;;7370162;19;20468;-68
2023/08/26 07:02:47;;;;;;;3.88;1.50;;;;;;;;;;7368761;19;20042;-67
2023/08/26 07:05:12;;;;;;;4.40;1.70;;;;;;;;;;7367475;19;20010;-71
2023/08/26 07:07:38;;;;;;;2.22;1.50;;;;;;;;;;7391527;19;19998;-71
2023/08/26 07:10:04;;;;;;;2.97;1.58;;;;;;;;;;7369436;19;20030;-71
2023/08/26 07:12:30;;;;;;;3.17;1.60;;;;;;;;;;7368930;19;20007;-72
2023/08/26 07:14:55;;;;;;;2.25;1.50;;;;;;;;;;7368086;19;20082;-71
2023/08/26 07:17:21;;;;;;;3.42;1.67;;;;;;;;;;7369578;19;20014;-73
2023/08/26 07:19:46;;;;;;;2.53;1.40;;;;;;;;;;7369365;19;20671;-71
2023/08/26 07:22:11;;;;;;;1.88;1.48;;;;;;;;;;7390636;19;20007;-71
2023/08/26 07:24:37;;;;;;;4.20;1.52;;;;;;;;;;7366574;19;20341;-71
2023/08/26 07:27:03;;;;;;;6.18;1.40;;;;;;;;;;7367134;19;20100;-70
2023/08/26 07:29:31;;;;;;;3.13;1.30;;;;;;;;;;7369377;19;20525;-71
2023/08/26 07:31:56;;;;;;;1.48;1.23;;;;;;;;;;7369411;19;20002;-71
2023/08/26 07:34:22;;;;;;;2.15;1.30;;;;;;;;;;7387268;19;20006;-71
2023/08/26 07:36:47;;;;;;;3.05;1.75;;;;;;;;;;7366724;19;20026;-71
2023/08/26 07:39:12;;;;;;;3.03;1.48;;;;;;;;;;7366751;19;20007;-72
2023/08/26 07:41:38;;;;;;;6.00;1.50;;;;;;;;;;7368487;19;20007;-74
2023/08/26 07:44:03;;;;;;;2.58;1.30;;;;;;;;;;7367259;19;20017;-72
2023/08/26 07:46:28;;;;;;;3.15;1.45;;;;;;;;;;7386946;19;20014;-72
2023/08/26 07:48:54;;;;;;;3.30;1.45;;;;;;;;;;7367022;19;20002;-72
2023/08/26 07:51:19;;;;;;;4.28;1.60;;;;;;;;;;7368094;19;20006;-72
2023/08/26 07:53:44;;;;;;;2.60;1.40;;;;;;;;;;7365971;19;20051;-72
2023/08/26 07:56:10;;;;;;;2.63;1.17;;;;;;;;;;7366674;19;20583;-71
2023/08/26 07:58:35;;;;;;;2.83;1.40;;;;;;;;;;7389517;19;20550;-71
2023/08/26 08:01:00;;;;;;;2.80;1.50;;;;;;;;;;7367323;19;20006;-72
2023/08/26 08:03:26;;;;;;;2.65;1.60;;;;;;;;;;7372109;19;20014;-71
2023/08/26 08:05:51;;;;;;;3.53;1.40;;;;;;;;;;7366119;19;20330;-70
2023/08/26 08:08:16;;;;;;;3.15;1.73;;;;;;;;;;7368047;19;20014;-71
2023/08/26 08:10:42;;;;;;;2.50;1.60;;;;;;;;;;7388954;19;20382;-70
2023/08/26 08:13:08;;;;;;;2.33;1.30;;;;;;;;;;7367535;19;20015;-70
2023/08/26 08:15:34;;;;;;;2.35;1.40;;;;;;;;;;7365310;19;20014;-70
2023/08/26 08:17:59;;;;;;;2.97;1.58;;;;;;;;;;7367892;19;20026;-70
2023/08/26 08:20:25;;;;;;;2.53;1.40;;;;;;;;;;7367085;19;20022;-71
2023/08/26 08:22:50;;;;;;;3.00;1.38;;;;;;;;;;7368150;19;20013;-71
2023/08/26 08:25:16;;;;;;;3.60;1.60;;;;;;;;;;7386404;19;20005;-71
2023/08/26 08:27:41;;;;;;;3.08;1.33;;;;;;;;;;7366800;19;20043;-71
2023/08/26 08:30:07;;;;;;;3.40;1.30;;;;;;;;;;7376825;19;20018;-70
2023/08/26 08:32:33;;;;;;;3.53;1.40;;;;;;;;;;7384367;19;20007;-70
2023/08/26 08:34:59;;;;;;;2.70;1.30;;;;;;;;;;7382451;19;20009;-70
2023/08/26 08:37:24;;;;;;;1.92;1.30;;;;;;;;;;7389346;19;20007;-71
2023/08/26 08:39:50;;;;;;;2.30;1.30;;;;;;;;;;7366658;19;20006;-71
2023/08/26 08:42:16;;;;;;;3.72;1.65;;;;;;;;;;7368391;19;20014;-71
2023/08/26 08:44:44;;;;;;;2.28;1.30;;;;;;;;;;7373096;19;20010;-70
2023/08/26 08:47:10;;;;;;;3.92;1.42;;;;;;;;;;7387403;19;20017;-70
2023/08/26 08:49:37;;;;;;;2.92;1.40;;;;;;;;;;7413689;19;20040;-70
2023/08/26 08:52:04;;;;;;;4.38;1.40;;;;;;;;;;7376024;19;20538;-71
2023/08/26 08:54:30;;;;;;;3.22;1.45;;;;;;;;;;7366444;19;20372;-72
2023/08/26 08:56:56;;;;;;;1.98;1.30;;;;;;;;;;7366126;19;20003;-71
2023/08/26 08:59:21;;;;;;;5.03;1.50;;;;;;;;;;7366755;19;20433;-71
2023/08/26 09:01:48;;;;;;;4.13;1.60;;;;;;;;;;7364704;19;20002;-71
2023/08/26 09:04:13;;;;;;;3.20;1.30;;;;;;;;;;7385647;19;20079;-72
2023/08/26 09:06:38;;;;;;;2.63;1.30;;;;;;;;;;7370170;19;20006;-71
2023/08/26 09:09:14;;;;;;;2.83;1.48;;;;;;;;;;7372413;19;20017;-71
2023/08/26 09:11:40;;;;;;;6.85;4.15;;;;;;;;;;7372498;19;20017;-72
2023/08/26 09:14:05;;;;;;;3.10;1.40;;;;;;;;;;7372042;19;20062;-71
2023/08/26 09:16:39;;;;;;;2.70;1.48;;;;;;;;;;7393452;19;20006;-71
2023/08/26 09:19:09;;;;;;;2.40;1.35;;;;;;;;;;7371796;19;20011;-71
2023/08/26 09:21:40;;;;;;;2.05;1.27;;;;;;;;;;7371033;19;20110;-71
2023/08/26 09:24:11;;;;;;;5.03;2.25;;;;;;;;;;7369868;19;20007;-72
2023/08/26 09:26:36;;;;;;;4.70;2.15;;;;;;;;;;7370225;19;20487;-71
2023/08/26 09:29:11;;;;;;;2.17;1.40;;;;;;;;;;7371869;19;20003;-70
2023/08/26 09:31:47;;;;;;;2.60;1.15;;;;;;;;;;7393742;19;20029;-71
2023/08/26 09:34:22;;;;;;;2.63;1.60;;;;;;;;;;7370571;19;20006;-70
2023/08/26 09:36:48;;;;;;;3.95;1.83;;;;;;;;;;7371055;19;20014;-71
2023/08/26 09:39:14;;;;;;;2.50;1.40;;;;;;;;;;7372558;19;20475;-70
2023/08/26 09:41:44;;;;;;;3.10;1.30;;;;;;;;;;7372584;19;20007;-70
2023/08/26 09:44:10;;;;;;;2.40;1.38;;;;;;;;;;7372526;19;20050;-72
2023/08/26 09:46:36;;;;;;;2.95;1.35;;;;;;;;;;7391076;19;20579;-70
2023/08/26 09:49:02;;;;;;;4.18;2.20;;;;;;;;;;7372374;19;20014;-74
2023/08/26 09:51:29;;;;;;;4.00;2.17;;;;;;;;;;7371981;19;20010;-70
2023/08/26 09:53:55;;;;;;;2.85;1.45;;;;;;;;;;7370463;19;20410;-70
2023/08/26 09:56:25;;;;;;;2.85;1.25;;;;;;;;;;7369834;19;20130;-71
2023/08/26 09:58:52;;;;;;;3.60;1.35;;;;;;;;;;7371932;19;20002;-71
2023/08/26 10:01:22;;;;;;;1.67;1.30;;;;;;;;;;7392112;19;20010;-71
2023/08/26 10:04:04;;;;;;;;;;;;;;;;;;7370257;19;20349;-70
2023/08/26 10:06:32;;;;;;;3.33;1.40;;;;;;;;;;7368464;19;19934;-71
2023/08/26 10:09:16;;;;;;;2.67;1.33;;;;;;;;;;7371485;19;20058;-69
2023/08/26 10:11:43;;;;;;;2.25;1.48;;;;;;;;;;7370534;19;20014;-70
2023/08/26 10:14:14;;;;;;;2.53;1.30;;;;;;;;;;7369552;19;20014;-71
2023/08/26 10:16:41;;;;;;;;;;;;;;;;;;7392292;19;20371;-70
2023/08/26 10:19:07;;;;;;;2.05;1.20;;;;;;;;;;7370728;19;19939;-69
2023/08/26 10:21:34;;;;;;;3.60;1.50;;;;;;;;;;7370053;19;20014;-69
2023/08/26 10:24:00;;;;;;;2.28;1.20;;;;;;;;;;7369920;19;20453;-70
2023/08/26 10:26:27;;;;;;;4.30;1.55;;;;;;;;;;7368901;19;20020;-71
2023/08/26 10:28:55;;;;;;;2.65;1.35;;;;;;;;;;7370743;19;20016;-70
2023/08/26 10:31:20;;;;;;;6.47;3.47;;;;;;;;;;7392520;19;20325;-72
2023/08/26 10:33:59;;;;;;;5.18;3.13;;;;;;;;;;7369722;19;20041;-69
2023/08/26 10:36:26;;;;;;;2.40;1.35;;;;;;;;;;7369000;19;20021;-71
2023/08/26 10:38:58;;;;;;;3.28;1.40;;;;;;;;;;7370673;19;20029;-71
2023/08/26 10:41:24;;;;;;;2.70;1.40;;;;;;;;;;7369711;19;20088;-70
2023/08/26 10:43:53;;;;;;;3.15;1.50;;;;;;;;;;7369797;19;20003;-71
2023/08/26 10:46:30;;;;;;;1.30;1.20;;;;;;;;;;7389630;19;20078;-71
2023/08/26 10:48:57;;;;;;;2.00;1.30;;;;;;;;;;7369375;19;20003;-71
2023/08/26 10:51:23;;;;;;;3.67;1.50;;;;;;;;;;7369198;19;20504;-70
2023/08/26 10:53:48;;;;;;;3.95;1.40;;;;;;;;;;7367273;19;20014;-70
2023/08/26 10:56:18;;;;;;;1.98;1.20;;;;;;;;;;7366952;19;20508;-70
2023/08/26 10:58:47;;;;;;;3.28;1.40;;;;;;;;;;7390272;19;20080;-70
2023/08/26 11:01:16;;;;;;;4.45;1.30;;;;;;;;;;7368549;19;20014;-70
2023/08/26 11:03:45;;;;;;;1.65;1.17;;;;;;;;;;7368091;19;20011;-70
2023/08/26 11:06:18;;;;;;;4.90;1.48;;;;;;;;;;7366985;19;20093;-70
2023/08/26 11:08:52;;;;;;;3.70;1.30;;;;;;;;;;7369622;19;20519;-70
2023/08/26 11:11:17;;;;;;;3.13;1.30;;;;;;;;;;7368279;19;20007;-70
2023/08/26 11:13:45;;;;;;;2.45;1.15;;;;;;;;;;7390813;19;20006;-70
2023/08/26 11:16:12;;;;;;;2.53;1.30;;;;;;;;;;7367897;19;20007;-72
2023/08/26 11:18:37;;;;;;;5.05;1.60;;;;;;;;;;7368164;19;20026;-70
2023/08/26 11:21:04;;;;;;;2.55;1.50;;;;;;;;;;7368182;19;20014;-70
2023/08/26 11:23:32;;;;;;;2.28;1.27;;;;;;;;;;7369642;19;20101;-70
2023/08/26 11:25:58;;;;;;;2.80;1.60;;;;;;;;;;7367279;19;19999;-70
2023/08/26 11:28:26;;;;;;;3.60;1.38;;;;;;;;;;7388871;19;20041;-70
2023/08/26 11:30:51;;;;;;;2.42;1.40;;;;;;;;;;7367444;19;20003;-70
2023/08/26 11:33:17;;;;;;;2.33;1.23;;;;;;;;;;7367108;19;20018;-70
2023/08/26 11:35:44;;;;;;;3.75;1.50;;;;;;;;;;7366703;19;20048;-71
2023/08/26 11:38:10;;;;;;;3.10;1.33;;;;;;;;;;7369075;19;20006;-70
2023/08/26 11:40:35;;;;;;;1.85;1.20;;;;;;;;;;7390101;19;20030;-71
2023/08/26 11:43:14;;;;;;;2.45;1.40;;;;;;;;;;7366649;19;20007;-71
2023/08/26 11:45:42;;;;;;;2.58;1.45;;;;;;;;;;7365464;19;20666;-71
2023/08/26 11:48:11;;;;;;;2.45;1.40;;;;;;;;;;7367301;19;20006;-71
2023/08/26 11:50:36;;;;;;;2.15;1.40;;;;;;;;;;7367617;19;20006;-71
2023/08/26 11:53:03;;;;;;;1.65;1.30;;;;;;;;;;7368492;19;20533;-71
2023/08/26 11:55:30;;;;;;;1.80;1.30;;;;;;;;;;7387937;19;20113;-71
2023/08/26 11:57:56;;;;;;;3.38;1.30;;;;;;;;;;7368153;19;20545;-71
2023/08/26 12:00:22;;;;;;;3.17;1.30;;;;;;;;;;7368143;19;20014;-71
2023/08/26 12:02:52;;;;;;;1.38;1.17;;;;;;;;;;7366264;19;20006;-70
2023/08/26 12:05:18;;;;;;;2.08;1.33;;;;;;;;;;7365344;19;20498;-71
2023/08/26 12:07:51;;;;;;;1.90;1.30;;;;;;;;;;7389304;19;20070;-71
2023/08/26 12:10:18;;;;;;;8.45;1.95;;;;;;;;;;7367930;19;20459;-70
2023/08/26 12:12:45;;;;;;;2.67;1.40;;;;;;;;;;7365993;19;20006;-70
2023/08/26 12:15:13;;;;;;;1.67;1.23;;;;;;;;;;7366198;19;20006;-70
2023/08/26 12:17:56;;;;;;;1.38;1.27;;;;;;;;;;7367518;19;20007;-71
2023/08/26 12:20:28;;;;;;;4.85;1.45;;;;;;;;;;7367332;19;20011;-71
2023/08/26 12:23:05;;;;;;;3.05;1.30;;;;;;;;;;7367723;19;20003;-70
2023/08/26 12:25:35;;;;;;;4.55;2.60;;;;;;;;;;7385160;19;20084;-71
2023/08/26 12:28:04;;;;;;;1.98;1.20;;;;;;;;;;7365982;19;20009;-70
2023/08/26 12:30:29;;;;;;;3.15;1.40;;;;;;;;;;7366231;19;19998;-70
2023/08/26 12:32:54;;;;;;;2.83;1.30;;;;;;;;;;7366713;19;20599;-70
2023/08/26 12:35:20;;;;;;;3.45;1.50;;;;;;;;;;7363704;19;20014;-71
2023/08/26 12:37:45;;;;;;;2.70;1.30;;;;;;;;;;7381119;19;19998;-70
2023/08/26 12:40:11;;;;;;;2.72;1.23;;;;;;;;;;7384564;19;20726;-70
2023/08/26 12:42:36;;;;;;;2.17;1.35;;;;;;;;;;7372520;19;20011;-71
2023/08/26 12:45:02;;;;;;;2.13;1.40;;;;;;;;;;7371228;19;20157;-70
2023/08/26 12:47:28;;;;;;;6.40;2.60;;;;;;;;;;7371780;19;20034;-70
2023/08/26 12:49:57;;;;;;;5.90;2.78;;;;;;;;;;7372951;19;20038;-71
2023/08/26 12:52:22;;;;;;;1.77;1.33;;;;;;;;;;7395210;19;20107;-72
2023/08/26 12:54:48;;;;;;;2.88;1.50;;;;;;;;;;7368866;19;20081;-70
2023/08/26 12:57:14;;;;;;;1.92;1.40;;;;;;;;;;7372512;19;20041;-70
2023/08/26 12:59:39;;;;;;;2.85;1.40;;;;;;;;;;7373467;19;20010;-71
2023/08/26 13:02:05;;;;;;;1.80;1.15;;;;;;;;;;7373118;19;20019;-71
2023/08/26 13:04:30;;;;;;;2.88;1.40;;;;;;;;;;7392490;19;20006;-70
2023/08/26 13:06:55;;;;;;;2.88;1.30;;;;;;;;;;7377685;19;20117;-70
2023/08/26 13:09:22;;;;;;;3.03;1.38;;;;;;;;;;7387440;19;20021;-69
2023/08/26 13:11:47;;;;;;;3.05;1.48;;;;;;;;;;7390714;19;20081;-70
2023/08/26 13:14:12;;;;;;;2.63;1.40;;;;;;;;;;7379528;19;20027;-71
2023/08/26 13:16:38;;;;;;;3.08;1.50;;;;;;;;;;7395499;19;20002;-71
2023/08/26 13:19:03;;;;;;;2.50;1.30;;;;;;;;;;7372328;19;20007;-70
2023/08/26 13:21:28;;;;;;;3.00;1.58;;;;;;;;;;7372432;19;20019;-70
2023/08/26 13:23:54;;;;;;;2.40;1.50;;;;;;;;;;7371846;19;20006;-71
2023/08/26 13:26:19;;;;;;;2.78;1.52;;;;;;;;;;7371224;19;20027;-71
2023/08/26 13:28:45;;;;;;;5.93;1.40;;;;;;;;;;7393317;19;20010;-70
2023/08/26 13:31:11;;;;;;;3.20;1.38;;;;;;;;;;7372339;19;20011;-70
2023/08/26 13:33:37;;;;;;;4.07;1.60;;;;;;;;;;7371752;19;20010;-70
2023/08/26 13:36:02;;;;;;;3.25;1.50;;;;;;;;;;7371955;19;20066;-71
2023/08/26 13:38:27;;;;;;;3.50;1.50;;;;;;;;;;7372779;19;20457;-70
2023/08/26 13:40:53;;;;;;;3.10;1.70;;;;;;;;;;7372320;19;20024;-71
2023/08/26 13:43:18;;;;;;;2.10;1.40;;;;;;;;;;7393986;19;20002;-70
2023/08/26 13:45:43;;;;;;;2.45;1.48;;;;;;;;;;7369942;19;20007;-71
2023/08/26 13:48:09;;;;;;;1.92;1.35;;;;;;;;;;7371356;19;20014;-70
2023/08/26 13:50:34;;;;;;;2.70;1.48;;;;;;;;;;7367944;19;20014;-72
2023/08/26 13:52:59;;;;;;;3.97;1.48;;;;;;;;;;7370605;19;20322;-70
2023/08/26 13:55:25;;;;;;;1.90;1.42;;;;;;;;;;7389074;19;20331;-70
2023/08/26 13:57:50;;;;;;;3.20;1.58;;;;;;;;;;7371668;19;20011;-70
2023/08/26 14:00:16;;;;;;;2.78;1.70;;;;;;;;;;7372008;19;20391;-70
2023/08/26 14:02:42;;;;;;;4.32;1.70;;;;;;;;;;7369455;19;20042;-70
2023/08/26 14:05:07;;;;;;;3.20;1.50;;;;;;;;;;7368260;19;20038;-70
2023/08/26 14:07:33;;;;;;;2.70;1.40;;;;;;;;;;7390697;19;20007;-70
2023/08/26 14:09:58;;;;;;;3.35;1.50;;;;;;;;;;7371197;19;20088;-71
2023/08/26 14:12:24;;;;;;;2.78;1.40;;;;;;;;;;7370247;19;20011;-70
2023/08/26 14:14:49;;;;;;;3.65;1.70;;;;;;;;;;7366867;19;20021;-70
2023/08/26 14:17:14;;;;;;;3.65;1.45;;;;;;;;;;7369739;19;20013;-70
2023/08/26 14:19:40;;;;;;;2.17;1.33;;;;;;;;;;7392779;19;20083;-70
2023/08/26 14:22:06;;;;;;;2.72;1.60;;;;;;;;;;7370164;19;20006;-70
2023/08/26 14:24:31;;;;;;;3.70;1.83;;;;;;;;;;7367745;19;20090;-70
2023/08/26 14:26:56;;;;;;;3.78;1.80;;;;;;;;;;7370879;19;20406;-71
2023/08/26 14:29:22;;;;;;;3.35;1.70;;;;;;;;;;7369270;19;20393;-70
2023/08/26 14:31:47;;;;;;;2.60;1.48;;;;;;;;;;7371105;19;20019;-69
2023/08/26 14:34:12;;;;;;;4.78;1.80;;;;;;;;;;7390776;19;20078;-71
2023/08/26 14:36:39;;;;;;;5.22;1.70;;;;;;;;;;7368701;19;20045;-69